Time;durP1;ratioP1;P1;durP2;ratioP2;P2;SDS_P1;SDS_P2;PMS_P1;PMS_P2;Temp;Humidity;BMP_temperature;BMP_pressure;BME280_temperature;BME280_humidity;BME280_pressure;Samples;Min_cycle;Max_cycle;Signal;HPM_P1;HPM_P2
2020/12/25 00:01:24;;;;;;;6.25;2.22;;;5.50;88.40;;;;;;4959996;28;20030;-91
2020/12/25 00:03:49;;;;;;;6.82;2.70;;;5.50;88.40;;;;;;4996486;28;20382;-90
2020/12/25 00:06:15;;;;;;;4.60;2.05;;;5.50;88.30;;;;;;4973750;28;20023;-91
2020/12/25 00:08:41;;;;;;;5.22;2.30;;;5.50;88.40;;;;;;4975487;28;20034;-91
2020/12/25 00:11:06;;;;;;;6.22;2.67;;;5.40;88.30;;;;;;4976295;28;20402;-91
2020/12/25 00:13:32;;;;;;;4.78;2.10;;;5.40;88.30;;;;;;4958669;28;20125;-90
2020/12/25 00:15:58;;;;;;;5.65;2.38;;;5.40;88.60;;;;;;4950342;28;20050;-91
2020/12/25 00:18:24;;;;;;;5.32;2.40;;;5.40;88.20;;;;;;4974409;28;20042;-91
2020/12/25 00:20:53;;;;;;;6.20;2.55;;;5.40;88.30;;;;;;4997146;28;20022;-89
2020/12/25 00:23:19;;;;;;;7.43;2.60;;;5.40;88.60;;;;;;4973798;28;20022;-88
2020/12/25 00:25:45;;;;;;;4.63;1.90;;;5.40;88.50;;;;;;4974387;28;20035;-89
2020/12/25 00:28:11;;;;;;;5.50;2.47;;;5.40;88.50;;;;;;4974494;28;20026;-89
2020/12/25 00:30:37;;;;;;;5.85;2.40;;;5.40;88.70;;;;;;4974524;28;20031;-89
2020/12/25 00:33:02;;;;;;;6.13;2.50;;;5.40;88.70;;;;;;4974063;28;20019;-89
2020/12/25 00:35:28;;;;;;;5.78;2.58;;;5.40;88.70;;;;;;4959078;28;20057;-88
2020/12/25 00:37:54;;;;;;;4.63;2.13;;;5.50;88.50;;;;;;4980757;28;20114;-89
2020/12/25 00:40:19;;;;;;;5.72;2.50;;;5.40;88.90;;;;;;4973816;28;20529;-89
2020/12/25 00:42:45;;;;;;;4.32;2.28;;;5.40;88.70;;;;;;4989976;28;20080;-88
2020/12/25 00:45:10;;;;;;;4.82;2.20;;;5.40;88.50;;;;;;4991869;28;20035;-89
2020/12/25 00:47:36;;;;;;;5.65;2.22;;;5.30;87.90;;;;;;4996604;28;20105;-90
2020/12/25 00:50:02;;;;;;;6.28;2.45;;;5.20;87.40;;;;;;4974446;28;20023;-89
2020/12/25 00:52:28;;;;;;;4.07;2.13;;;5.10;88.00;;;;;;4991078;28;20027;-90
2020/12/25 00:54:53;;;;;;;5.95;2.35;;;5.20;88.30;;;;;;4974415;28;20043;-90
2020/12/25 00:57:19;;;;;;;5.28;2.42;;;5.10;87.80;;;;;;4973386;28;20471;-89
2020/12/25 00:59:45;;;;;;;6.10;2.35;;;5.10;88.10;;;;;;4975780;28;20121;-87
2020/12/25 01:02:11;;;;;;;5.13;2.30;;;5.00;88.10;;;;;;4958568;28;20031;-88
2020/12/25 01:04:36;;;;;;;5.05;2.55;;;5.10;88.10;;;;;;4996948;28;20530;-88
2020/12/25 01:07:06;;;;;;;5.13;2.38;;;5.00;88.10;;;;;;4957414;28;20022;-89
2020/12/25 01:09:32;;;;;;;4.22;1.88;;;5.00;88.40;;;;;;4982216;28;20027;-92
2020/12/25 01:11:59;;;;;;;5.18;2.45;;;4.90;87.90;;;;;;4974867;28;20027;-88
2020/12/25 01:14:28;;;;;;;6.45;2.67;;;4.80;87.90;;;;;;4978058;28;20505;-88
2020/12/25 01:16:55;;;;;;;7.55;3.00;;;4.80;87.80;;;;;;4980877;28;20033;-88
2020/12/25 01:19:27;;;;;;;5.25;2.40;;;4.80;88.00;;;;;;4973408;28;20082;-88
2020/12/25 01:21:53;;;;;;;7.22;3.08;;;4.80;88.40;;;;;;4978830;28;20130;-89
2020/12/25 01:24:19;;;;;;;5.80;2.40;;;4.80;88.30;;;;;;4973181;28;20107;-92
2020/12/25 01:26:45;;;;;;;4.85;1.98;;;4.80;88.40;;;;;;4973473;28;20050;-92
2020/12/25 01:29:11;;;;;;;4.82;2.03;;;4.80;88.80;;;;;;4975937;28;20372;-91
2020/12/25 01:31:37;;;;;;;5.85;2.63;;;4.70;88.70;;;;;;4957530;28;20027;-92
2020/12/25 01:34:03;;;;;;;4.03;1.83;;;4.70;88.30;;;;;;4965030;28;20035;-91
2020/12/25 01:36:28;;;;;;;5.82;2.58;;;4.70;88.10;;;;;;4973562;28;20026;-91
2020/12/25 01:38:54;;;;;;;5.95;2.70;;;4.60;88.00;;;;;;4973513;28;20478;-91
2020/12/25 01:41:20;;;;;;;7.18;2.90;;;4.60;88.20;;;;;;4958395;28;20023;-91
2020/12/25 01:43:46;;;;;;;7.57;3.10;;;4.60;88.40;;;;;;4973065;28;20023;-87
2020/12/25 01:46:12;;;;;;;7.78;3.28;;;4.60;88.40;;;;;;4988822;28;20110;-88
2020/12/25 01:48:38;;;;;;;6.35;2.63;;;4.60;88.30;;;;;;4980990;28;20031;-87
2020/12/25 01:51:06;;;;;;;6.10;2.78;;;4.60;88.60;;;;;;4974209;28;20018;-87
2020/12/25 01:53:33;;;;;;;7.20;3.40;;;4.60;88.50;;;;;;4972393;28;20050;-88
2020/12/25 01:55:59;;;;;;;8.63;3.33;;;4.60;88.30;;;;;;4973950;28;20515;-87
2020/12/25 01:58:28;;;;;;;7.45;3.30;;;4.50;88.00;;;;;;4971867;28;20117;-87
2020/12/25 02:00:53;;;;;;;6.32;2.92;;;4.50;88.20;;;;;;4972595;28;20033;-87
2020/12/25 02:03:19;;;;;;;7.57;2.83;;;4.50;88.40;;;;;;4956648;28;20105;-87
2020/12/25 02:05:45;;;;;;;6.45;2.65;;;4.40;88.30;;;;;;4977944;28;20549;-87
2020/12/25 02:08:12;;;;;;;7.53;3.00;;;4.40;88.00;;;;;;4980365;28;20031;-87
2020/12/25 02:10:39;;;;;;;8.00;3.40;;;4.40;88.30;;;;;;4974584;28;20030;-87
2020/12/25 02:13:05;;;;;;;7.18;3.10;;;4.30;88.40;;;;;;4957478;28;20030;-87
2020/12/25 02:15:32;;;;;;;10.50;4.00;;;4.30;88.10;;;;;;4956499;28;20035;-87
2020/12/25 02:17:58;;;;;;;6.70;2.80;;;4.30;87.90;;;;;;4972688;28;20034;-87
2020/12/25 02:20:24;;;;;;;6.68;2.95;;;4.20;87.90;;;;;;4973583;28;20019;-88
2020/12/25 02:22:50;;;;;;;7.95;3.22;;;4.20;88.20;;;;;;4992666;28;20399;-88
2020/12/25 02:25:16;;;;;;;10.27;3.53;;;4.10;87.90;;;;;;4974429;28;20029;-89
2020/12/25 02:27:42;;;;;;;7.28;2.65;;;4.10;87.90;;;;;;4972042;28;20026;-88
2020/12/25 02:30:08;;;;;;;8.40;3.15;;;4.00;88.00;;;;;;4949371;28;20379;-88
2020/12/25 02:32:34;;;;;;;8.10;3.25;;;4.00;88.00;;;;;;4976399;28;20073;-88
2020/12/25 02:35:00;;;;;;;6.07;2.67;;;4.00;88.20;;;;;;4976164;28;20034;-88
2020/12/25 02:37:26;;;;;;;7.45;2.85;;;4.00;88.40;;;;;;4966814;28;20023;-88
2020/12/25 02:39:52;;;;;;;6.05;2.53;;;4.00;88.60;;;;;;4980247;28;20137;-88
2020/12/25 02:42:18;;;;;;;5.72;2.50;;;4.00;88.30;;;;;;4976051;28;20022;-88
2020/12/25 02:44:43;;;;;;;7.53;2.70;;;3.90;87.70;;;;;;4976223;28;20089;-88
2020/12/25 02:47:10;;;;;;;4.90;2.20;;;3.80;88.00;;;;;;4975694;28;20031;-88
2020/12/25 02:49:37;;;;;;;7.03;2.70;;;3.80;87.80;;;;;;4992930;28;20023;-91
2020/12/25 02:52:04;;;;;;;5.40;2.05;;;3.70;87.90;;;;;;4976997;28;20058;-92
2020/12/25 02:54:31;;;;;;;5.05;1.73;;;3.60;87.70;;;;;;4976328;28;20423;-89
2020/12/25 02:56:57;;;;;;;6.07;2.53;;;3.60;87.80;;;;;;4976891;28;20490;-89
2020/12/25 02:59:23;;;;;;;7.32;2.70;;;3.60;87.80;;;;;;4994087;28;20483;-89
2020/12/25 03:01:50;;;;;;;3.30;1.80;;;3.60;88.00;;;;;;4995148;28;20420;-90
2020/12/25 03:04:16;;;;;;;7.38;2.58;;;3.50;88.00;;;;;;4975818;28;20023;-89
2020/12/25 03:06:42;;;;;;;4.70;2.22;;;3.50;88.50;;;;;;4975765;28;20670;-90
2020/12/25 03:09:08;;;;;;;6.97;2.70;;;3.40;88.00;;;;;;4975866;28;20031;-89
2020/12/25 03:11:33;;;;;;;7.10;2.90;;;3.40;88.20;;;;;;4975508;28;20106;-89
2020/12/25 03:13:59;;;;;;;3.60;1.85;;;3.30;88.30;;;;;;4975268;28;20114;-89
2020/12/25 03:16:24;;;;;;;8.82;3.53;;;3.40;88.20;;;;;;4977006;28;20039;-89
2020/12/25 03:18:50;;;;;;;5.30;2.17;;;3.40;88.20;;;;;;4975770;28;20018;-90
2020/12/25 03:21:16;;;;;;;9.32;3.00;;;3.30;88.00;;;;;;4975557;28;20130;-89
2020/12/25 03:23:42;;;;;;;7.30;3.13;;;3.30;88.20;;;;;;4977011;28;20023;-89
2020/12/25 03:26:08;;;;;;;8.30;3.25;;;3.30;88.30;;;;;;4993761;28;20118;-88
2020/12/25 03:28:33;;;;;;;8.20;3.03;;;3.30;88.30;;;;;;4991276;28;20038;-89
2020/12/25 03:30:59;;;;;;;8.77;2.92;;;3.30;88.50;;;;;;4970375;28;20027;-89
2020/12/25 03:33:24;;;;;;;8.73;3.33;;;3.40;88.80;;;;;;4993004;28;20391;-88
2020/12/25 03:35:50;;;;;;;8.70;3.08;;;3.30;88.50;;;;;;4985382;28;20027;-88
2020/12/25 03:38:16;;;;;;;7.43;2.72;;;3.40;88.40;;;;;;4973394;28;20026;-88
2020/12/25 03:40:42;;;;;;;7.53;2.75;;;3.30;88.30;;;;;;4994982;28;20018;-88
2020/12/25 03:43:08;;;;;;;7.50;3.25;;;3.30;88.90;;;;;;4976318;28;20030;-89
2020/12/25 03:45:33;;;;;;;6.85;3.00;;;3.30;88.10;;;;;;4994787;28;20023;-89
2020/12/25 03:48:00;;;;;;;7.43;2.90;;;3.30;88.40;;;;;;4975015;28;20486;-89
2020/12/25 03:50:27;;;;;;;6.53;2.78;;;3.30;88.30;;;;;;4975945;28;20027;-89
2020/12/25 03:52:53;;;;;;;7.47;2.13;;;3.30;88.80;;;;;;4975326;28;20022;-89
2020/12/25 03:55:18;;;;;;;7.25;2.75;;;3.30;88.50;;;;;;4975873;28;20057;-89
2020/12/25 03:57:44;;;;;;;9.60;3.28;;;3.30;88.30;;;;;;4976258;28;20027;-89
2020/12/25 04:00:10;;;;;;;4.97;2.20;;;3.30;88.60;;;;;;4958816;28;20031;-89
2020/12/25 04:02:35;;;;;;;7.05;2.53;;;3.30;88.80;;;;;;4995404;28;20027;-89
2020/12/25 04:05:01;;;;;;;7.25;3.08;;;3.30;88.60;;;;;;4977384;28;20031;-89
2020/12/25 04:07:26;;;;;;;8.40;3.10;;;3.30;88.40;;;;;;4998839;28;20023;-89
2020/12/25 04:09:52;;;;;;;3.97;2.08;;;3.30;88.50;;;;;;4976173;28;20057;-89
2020/12/25 04:12:18;;;;;;;6.32;2.50;;;3.30;88.60;;;;;;4958506;28;20050;-88
2020/12/25 04:14:43;;;;;;;7.65;2.67;;;3.30;88.50;;;;;;4974275;28;20150;-88
2020/12/25 04:17:09;;;;;;;7.40;2.63;;;3.30;88.80;;;;;;4994585;28;20027;-88
2020/12/25 04:19:34;;;;;;;4.03;1.75;;;3.30;88.80;;;;;;4980071;28;20038;-88
2020/12/25 04:22:01;;;;;;;3.25;1.63;;;3.30;88.50;;;;;;4959173;28;20039;-89
2020/12/25 04:24:27;;;;;;;5.93;2.40;;;3.20;88.60;;;;;;4974267;28;20031;-89
2020/12/25 04:26:53;;;;;;;5.80;2.42;;;3.30;88.70;;;;;;4974276;28;20029;-89
2020/12/25 04:29:18;;;;;;;7.15;2.75;;;3.30;88.60;;;;;;4974578;28;20066;-88
2020/12/25 04:31:44;;;;;;;6.47;2.45;;;3.30;88.60;;;;;;4976716;28;20046;-91
2020/12/25 04:34:09;;;;;;;7.05;2.75;;;3.30;89.00;;;;;;4974737;28;20105;-92
2020/12/25 04:36:35;;;;;;;8.05;3.15;;;3.40;88.80;;;;;;4975035;28;20379;-92
2020/12/25 04:39:02;;;;;;;6.78;2.80;;;3.40;88.90;;;;;;4974873;28;20497;-92
2020/12/25 04:41:32;;;;;;;7.63;3.03;;;3.30;88.70;;;;;;4981108;28;20049;-92
2020/12/25 04:44:03;;;;;;;5.10;2.20;;;3.30;88.80;;;;;;4974338;28;20019;-88
2020/12/25 04:46:29;;;;;;;6.88;2.70;;;3.30;88.60;;;;;;4976048;28;20030;-88
2020/12/25 04:48:55;;;;;;;8.32;2.70;;;3.30;88.70;;;;;;4982200;28;20041;-88
2020/12/25 04:51:20;;;;;;;9.52;3.78;;;3.30;89.00;;;;;;4974707;28;20122;-88
2020/12/25 04:53:51;;;;;;;6.53;2.95;;;3.30;88.70;;;;;;4975058;28;20190;-88
2020/12/25 04:56:22;;;;;;;7.07;2.95;;;3.30;88.70;;;;;;4989708;28;20031;-89
2020/12/25 04:58:49;;;;;;;7.60;3.03;;;3.30;89.50;;;;;;4977906;28;20485;-88
2020/12/25 05:01:15;;;;;;;8.95;3.30;;;3.30;88.90;;;;;;4973649;28;20030;-88
2020/12/25 05:03:42;;;;;;;7.00;2.90;;;3.40;88.90;;;;;;4976043;28;20542;-88
2020/12/25 05:06:10;;;;;;;8.73;3.08;;;3.40;88.80;;;;;;4974391;28;20086;-88
2020/12/25 05:08:42;;;;;;;8.20;3.17;;;3.30;88.80;;;;;;4973405;28;20019;-88
2020/12/25 05:11:10;;;;;;;8.85;3.72;;;3.40;89.00;;;;;;4973754;28;20059;-90
2020/12/25 05:13:43;;;;;;;8.05;3.17;;;3.40;88.90;;;;;;4975470;28;20023;-90
2020/12/25 05:16:10;;;;;;;8.48;3.55;;;3.40;88.80;;;;;;4973564;28;20030;-90
2020/12/25 05:18:41;;;;;;;6.55;2.58;;;3.40;88.90;;;;;;4979273;28;20034;-90
2020/12/25 05:21:10;;;;;;;10.30;3.72;;;3.30;88.60;;;;;;4973476;28;20498;-91
2020/12/25 05:23:37;;;;;;;6.43;2.55;;;3.30;88.50;;;;;;4973551;28;20457;-89
2020/12/25 05:26:08;;;;;;;8.10;3.13;;;3.30;88.50;;;;;;4991384;28;20122;-89
2020/12/25 05:28:37;;;;;;;5.93;2.25;;;3.20;88.40;;;;;;4973136;28;20019;-89
2020/12/25 05:31:03;;;;;;;3.15;1.88;;;3.30;89.30;;;;;;4973385;28;20113;-89
2020/12/25 05:33:31;;;;;;;4.32;2.00;;;3.20;88.50;;;;;;4972972;28;20027;-90
2020/12/25 05:35:56;;;;;;;6.38;2.55;;;3.20;88.70;;;;;;4973314;28;20054;-89
2020/12/25 05:38:26;;;;;;;5.30;2.10;;;3.20;88.80;;;;;;4991217;28;20073;-88
2020/12/25 05:40:51;;;;;;;6.13;2.67;;;3.20;88.80;;;;;;4957280;28;20034;-89
2020/12/25 05:43:18;;;;;;;7.15;2.58;;;3.20;88.60;;;;;;4979396;28;20113;-89
2020/12/25 05:45:44;;;;;;;8.32;3.22;;;3.20;88.80;;;;;;4974881;28;20364;-89
2020/12/25 05:48:10;;;;;;;3.47;1.95;;;3.20;88.70;;;;;;4998047;28;20091;-89
2020/12/25 05:50:37;;;;;;;5.68;2.13;;;3.10;88.60;;;;;;4976619;28;21151;-89
2020/12/25 05:53:03;;;;;;;4.18;1.65;;;3.20;88.80;;;;;;4976899;28;20473;-89
2020/12/25 05:55:29;;;;;;;6.88;2.80;;;3.10;88.60;;;;;;4973115;28;20557;-89
2020/12/25 05:57:55;;;;;;;8.27;3.08;;;3.10;89.00;;;;;;4957752;28;20067;-89
2020/12/25 06:00:23;;;;;;;5.57;2.10;;;3.20;88.90;;;;;;4978699;28;20035;-88
2020/12/25 06:02:51;;;;;;;7.35;3.00;;;3.20;89.00;;;;;;4972768;28;20022;-88
2020/12/25 06:05:18;;;;;;;2.22;1.38;;;3.20;89.00;;;;;;4995470;28;20034;-88
2020/12/25 06:07:48;;;;;;;7.63;3.22;;;3.20;89.10;;;;;;4979838;28;20113;-88
2020/12/25 06:10:22;;;;;;;5.20;2.58;;;3.20;89.00;;;;;;4972772;28;20023;-88
2020/12/25 06:12:48;;;;;;;2.58;1.45;;;3.20;89.00;;;;;;4972974;28;20019;-89
2020/12/25 06:15:22;;;;;;;9.65;3.60;;;3.30;89.20;;;;;;4975395;28;20043;-85
2020/12/25 06:17:55;;;;;;;5.38;2.22;;;3.30;89.30;;;;;;4972436;28;20015;-85
2020/12/25 06:20:22;;;;;;;4.10;1.90;;;3.30;89.30;;;;;;4973780;28;20435;-85
2020/12/25 06:22:48;;;;;;;6.90;3.08;;;3.40;89.60;;;;;;4988493;28;20038;-84
2020/12/25 06:25:16;;;;;;;3.88;1.75;;;3.40;90.00;;;;;;4989494;28;20475;-85
2020/12/25 06:27:49;;;;;;;4.70;1.95;;;3.40;89.60;;;;;;4974247;28;20082;-85
2020/12/25 06:30:23;;;;;;;7.18;2.90;;;3.50;89.50;;;;;;4990380;28;20089;-85
2020/12/25 06:32:51;;;;;;;2.53;1.60;;;3.50;89.30;;;;;;4992979;28;20014;-86
2020/12/25 06:35:26;;;;;;;7.78;3.10;;;3.50;89.50;;;;;;4975692;28;20050;-86
2020/12/25 06:37:52;;;;;;;11.70;4.13;;;3.50;89.30;;;;;;4989059;28;20014;-87
2020/12/25 06:40:25;;;;;;;8.07;3.40;;;3.60;89.50;;;;;;4977848;28;20035;-87
2020/12/25 06:42:53;;;;;;;8.50;3.17;;;3.60;89.70;;;;;;4986779;28;20506;-87
2020/12/25 06:45:26;;;;;;;7.47;2.80;;;3.70;89.60;;;;;;4972164;28;20531;-87
2020/12/25 06:47:52;;;;;;;5.78;2.28;;;3.70;89.30;;;;;;4972686;28;20070;-87
2020/12/25 06:50:17;;;;;;;9.75;3.58;;;3.60;89.20;;;;;;4973605;28;20027;-87
2020/12/25 06:52:53;;;;;;;6.68;2.83;;;3.60;89.20;;;;;;4993571;28;20022;-87
2020/12/25 06:55:23;;;;;;;0.70;0.70;;;3.70;89.40;;;;;;4988145;28;20089;-86
2020/12/25 06:57:55;;;;;;;9.80;3.67;;;3.70;89.20;;;;;;4972204;28;20030;-87
2020/12/25 07:00:22;;;;;;;3.28;1.73;;;3.70;89.60;;;;;;4993202;28;20098;-85
2020/12/25 07:02:48;;;;;;;10.48;4.00;;;3.70;89.60;;;;;;4991343;28;20082;-85
2020/12/25 07:05:14;;;;;;;9.63;3.53;;;3.80;89.50;;;;;;4972039;28;20031;-84
2020/12/25 07:07:41;;;;;;;9.90;3.55;;;3.70;89.20;;;;;;4989853;28;20058;-88
2020/12/25 07:10:12;;;;;;;8.60;3.83;;;3.80;89.30;;;;;;4971607;28;20041;-86
2020/12/25 07:12:38;;;;;;;4.32;2.05;;;3.80;89.10;;;;;;4968752;28;20022;-85
2020/12/25 07:15:06;;;;;;;5.07;2.05;;;3.70;88.90;;;;;;4972500;28;20089;-86
2020/12/25 07:17:33;;;;;;;2.92;1.27;;;3.70;89.10;;;;;;4975172;28;20029;-86
2020/12/25 07:19:58;;;;;;;5.40;2.33;;;3.70;89.20;;;;;;4976722;28;20034;-90
2020/12/25 07:22:24;;;;;;;5.95;2.35;;;3.60;89.70;;;;;;4975568;28;20047;-90
2020/12/25 07:24:50;;;;;;;5.85;2.70;;;3.70;89.20;;;;;;4959763;28;20081;-90
2020/12/25 07:27:16;;;;;;;3.63;2.30;;;3.70;89.40;;;;;;4962557;28;20106;-90
2020/12/25 07:29:44;;;;;;;7.18;2.65;;;3.70;89.40;;;;;;4983615;28;20033;-85
2020/12/25 07:32:11;;;;;;;12.27;4.70;;;3.70;89.40;;;;;;4960541;28;20031;-88
2020/12/25 07:34:37;;;;;;;8.25;3.03;;;3.80;89.50;;;;;;4993994;28;20041;-87
2020/12/25 07:37:03;;;;;;;7.90;3.25;;;3.80;89.60;;;;;;4977274;28;20023;-86
2020/12/25 07:39:30;;;;;;;3.58;1.70;;;3.80;89.40;;;;;;4974894;28;20027;-86
2020/12/25 07:41:56;;;;;;;7.68;3.03;;;3.80;89.20;;;;;;4974765;28;20022;-86
2020/12/25 07:44:23;;;;;;;10.18;3.95;;;3.80;89.40;;;;;;4975313;28;20471;-88
2020/12/25 07:46:50;;;;;;;7.55;2.30;;;3.90;89.30;;;;;;4975024;28;20030;-86
2020/12/25 07:49:18;;;;;;;7.75;3.25;;;3.80;89.20;;;;;;4974799;28;20506;-86
2020/12/25 07:51:46;;;;;;;10.98;4.70;;;3.80;89.40;;;;;;4975915;28;20447;-86
2020/12/25 07:54:14;;;;;;;10.52;4.18;;;3.90;89.60;;;;;;4973900;28;20031;-86
2020/12/25 07:56:39;;;;;;;10.65;4.40;;;3.90;89.60;;;;;;4988214;28;20019;-87
2020/12/25 07:59:05;;;;;;;5.93;2.83;;;3.90;89.30;;;;;;4994886;28;20232;-86
2020/12/25 08:01:33;;;;;;;8.57;3.03;;;3.90;89.30;;;;;;4993850;28;20467;-87
2020/12/25 08:04:04;;;;;;;13.18;5.43;;;3.90;89.20;;;;;;4976002;28;20097;-87
2020/12/25 08:06:32;;;;;;;5.93;2.63;;;3.90;89.40;;;;;;4974666;28;20431;-87
2020/12/25 08:09:02;;;;;;;5.18;2.58;;;3.90;89.40;;;;;;4975715;28;20114;-87
2020/12/25 08:11:27;;;;;;;13.00;4.70;;;3.90;89.20;;;;;;4994298;28;20033;-86
2020/12/25 08:13:59;;;;;;;12.48;5.00;;;3.90;89.40;;;;;;4993598;28;20031;-87
2020/12/25 08:16:25;;;;;;;6.43;2.80;;;3.90;89.40;;;;;;4993789;28;20042;-86
2020/12/25 08:18:50;;;;;;;6.63;3.05;;;3.90;89.20;;;;;;4976941;28;20391;-86
2020/12/25 08:21:17;;;;;;;11.75;5.13;;;3.90;89.30;;;;;;4973952;28;20054;-86
2020/12/25 08:23:42;;;;;;;9.35;4.13;;;3.90;89.60;;;;;;4974226;28;20015;-85
2020/12/25 08:26:08;;;;;;;11.38;4.60;;;3.90;89.40;;;;;;4977722;28;20049;-87
2020/12/25 08:28:34;;;;;;;13.02;4.63;;;4.00;89.70;;;;;;4977083;28;20045;-86
2020/12/25 08:31:14;;;;;;;11.32;4.65;;;4.00;89.50;;;;;;4974404;28;20039;-86
2020/12/25 08:33:40;;;;;;;10.07;3.60;;;4.00;89.60;;;;;;4975068;28;20038;-85
2020/12/25 08:36:10;;;;;;;14.25;5.38;;;4.00;89.50;;;;;;4978530;28;20029;-85
2020/12/25 08:38:42;;;;;;;9.00;3.60;;;4.00;89.30;;;;;;4976039;28;20504;-85
2020/12/25 08:41:08;;;;;;;9.23;4.15;;;4.10;89.50;;;;;;4978157;28;20069;-86
2020/12/25 08:43:34;;;;;;;7.57;3.25;;;4.00;89.40;;;;;;4975469;28;20399;-86
2020/12/25 08:46:02;;;;;;;12.02;5.32;;;4.10;89.70;;;;;;4957772;28;20033;-86
2020/12/25 08:48:32;;;;;;;14.32;5.88;;;4.10;89.70;;;;;;4974039;28;20162;-86
2020/12/25 08:51:11;;;;;;;13.98;5.18;;;4.20;89.70;;;;;;4973364;28;20030;-86
2020/12/25 08:53:39;;;;;;;11.52;4.82;;;4.20;89.80;;;;;;4972389;28;20023;-86
2020/12/25 08:56:16;;;;;;;12.00;4.70;;;4.20;89.70;;;;;;4977081;28;20090;-86
2020/12/25 08:59:08;;;;;;;12.57;4.95;;;4.30;89.80;;;;;;4974972;28;20015;-86
2020/12/25 09:01:38;;;;;;;12.95;5.30;;;4.40;90.10;;;;;;4971094;28;20030;-86
2020/12/25 09:04:04;;;;;;;12.32;5.05;;;4.50;90.20;;;;;;4976874;28;20023;-88
2020/12/25 09:06:30;;;;;;;11.27;5.18;;;4.50;90.00;;;;;;4974640;28;20033;-86
2020/12/25 09:08:56;;;;;;;13.80;5.75;;;4.60;89.90;;;;;;4976165;28;20117;-86
2020/12/25 09:11:23;;;;;;;11.35;4.85;;;4.60;89.70;;;;;;4991955;28;20087;-86
2020/12/25 09:13:51;;;;;;;11.40;5.47;;;4.60;89.90;;;;;;4991609;28;20038;-85
2020/12/25 09:16:17;;;;;;;10.48;4.03;;;4.60;89.70;;;;;;4973140;28;20030;-87
2020/12/25 09:18:42;;;;;;;13.23;5.60;;;4.60;89.60;;;;;;4974661;28;20030;-87
2020/12/25 09:21:10;;;;;;;13.93;5.05;;;4.60;89.30;;;;;;4993131;28;20474;-83
2020/12/25 09:23:36;;;;;;;12.30;4.63;;;4.70;89.60;;;;;;4972966;28;20023;-82
2020/12/25 09:26:03;;;;;;;15.50;6.50;;;4.70;90.20;;;;;;4973268;28;20058;-86
2020/12/25 09:28:29;;;;;;;14.65;4.85;;;4.70;90.00;;;;;;4973743;28;20019;-91
2020/12/25 09:31:38;;;;;;;9.10;3.78;;;4.80;90.00;;;;;;4990980;28;20033;-87
2020/12/25 09:34:04;;;;;;;11.07;5.10;;;4.80;89.90;;;;;;4989499;28;20034;-87
2020/12/25 09:36:29;;;;;;;11.43;4.15;;;4.80;89.60;;;;;;4992090;28;20081;-88
2020/12/25 09:38:55;;;;;;;16.38;6.05;;;4.80;89.70;;;;;;4975414;28;20039;-85
2020/12/25 09:41:20;;;;;;;12.05;5.10;;;4.80;89.70;;;;;;4971469;28;20045;-85
2020/12/25 09:43:46;;;;;;;11.65;4.68;;;4.90;90.00;;;;;;4972020;28;20026;-85
2020/12/25 09:46:12;;;;;;;14.52;5.50;;;4.90;90.00;;;;;;4974002;28;20027;-83
2020/12/25 09:48:38;;;;;;;14.73;6.63;;;5.00;90.30;;;;;;4953488;28;20034;-83
2020/12/25 09:51:03;;;;;;;11.60;4.57;;;5.00;90.10;;;;;;4976593;28;20479;-84
2020/12/25 09:53:29;;;;;;;10.27;4.20;;;5.00;89.50;;;;;;4995652;28;20073;-84
2020/12/25 09:55:54;;;;;;;8.00;3.50;;;5.00;89.30;;;;;;4991827;28;20034;-84
2020/12/25 09:58:20;;;;;;;10.00;4.25;;;5.00;89.50;;;;;;4991498;28;20031;-84
2020/12/25 10:00:46;;;;;;;10.65;4.35;;;5.00;89.90;;;;;;4972665;28;20035;-84
2020/12/25 10:03:11;;;;;;;10.23;3.85;;;5.00;89.70;;;;;;4974576;28;20023;-84
2020/12/25 10:05:37;;;;;;;9.60;4.30;;;5.10;90.00;;;;;;4974816;28;20407;-84
2020/12/25 10:08:02;;;;;;;10.88;4.22;;;5.10;89.80;;;;;;4988630;28;20063;-84
2020/12/25 10:10:28;;;;;;;9.35;3.83;;;5.10;89.80;;;;;;4977762;28;20051;-85
2020/12/25 10:12:54;;;;;;;8.93;3.75;;;5.10;90.00;;;;;;4997218;28;20114;-85
2020/12/25 10:15:20;;;;;;;10.30;4.40;;;5.20;90.00;;;;;;4992529;28;20129;-84
2020/12/25 10:17:46;;;;;;;9.95;3.75;;;5.30;89.90;;;;;;4972312;28;20408;-84
2020/12/25 10:20:11;;;;;;;10.00;3.72;;;5.30;89.70;;;;;;4974995;28;20035;-84
2020/12/25 10:22:37;;;;;;;9.48;3.60;;;5.20;89.60;;;;;;4973178;28;20039;-84
2020/12/25 10:25:03;;;;;;;4.93;2.15;;;5.30;89.60;;;;;;4972239;28;20391;-84
2020/12/25 10:27:29;;;;;;;16.75;7.63;;;5.20;89.40;;;;;;4990234;28;20031;-84
2020/12/25 10:29:54;;;;;;;8.70;3.67;;;5.20;90.10;;;;;;4988454;28;20151;-84
2020/12/25 10:32:20;;;;;;;9.32;3.70;;;5.20;89.90;;;;;;4957217;28;20027;-84
2020/12/25 10:34:46;;;;;;;8.95;3.45;;;5.30;90.10;;;;;;4973343;28;20031;-84
2020/12/25 10:37:12;;;;;;;9.25;3.30;;;5.40;90.20;;;;;;4976349;28;20042;-84
2020/12/25 10:39:38;;;;;;;8.27;3.63;;;5.50;90.10;;;;;;4973328;28;20486;-84
2020/12/25 10:42:08;;;;;;;8.45;3.45;;;5.60;90.10;;;;;;4975282;28;20030;-84
2020/12/25 10:44:34;;;;;;;8.18;3.25;;;5.80;90.20;;;;;;4990811;28;20034;-86
2020/12/25 10:46:59;;;;;;;8.63;3.60;;;5.80;90.00;;;;;;4973927;28;20058;-84
2020/12/25 10:49:25;;;;;;;6.85;3.00;;;5.80;90.00;;;;;;4973162;28;20023;-84
2020/12/25 10:51:51;;;;;;;8.35;3.28;;;5.90;90.20;;;;;;4996219;28;20019;-84
2020/12/25 10:54:17;;;;;;;7.47;2.78;;;6.00;90.00;;;;;;4996023;28;20133;-84
2020/12/25 10:56:42;;;;;;;8.07;3.30;;;6.00;89.70;;;;;;4979005;28;20023;-84
2020/12/25 10:59:08;;;;;;;7.30;2.83;;;6.00;89.80;;;;;;4994904;28;20050;-84
2020/12/25 11:01:33;;;;;;;6.68;2.80;;;6.00;89.80;;;;;;4978079;28;20045;-84
2020/12/25 11:03:59;;;;;;;6.97;2.80;;;6.10;90.20;;;;;;4994113;28;20037;-84
2020/12/25 11:06:32;;;;;;;8.38;2.85;;;6.20;90.10;;;;;;4975641;28;20526;-84
2020/12/25 11:08:58;;;;;;;35.55;19.50;;;6.30;90.00;;;;;;4971957;28;20049;-84
2020/12/25 11:11:28;;;;;;;14.40;6.32;;;6.30;90.00;;;;;;4975628;28;20026;-84
2020/12/25 11:13:55;;;;;;;8.23;3.20;;;6.40;90.60;;;;;;4975540;28;20094;-84
2020/12/25 11:16:22;;;;;;;9.40;3.63;;;6.50;90.00;;;;;;4977348;28;20386;-84
2020/12/25 11:18:47;;;;;;;7.35;3.15;;;6.50;90.00;;;;;;4975364;28;20023;-84
2020/12/25 11:21:24;;;;;;;5.82;2.70;;;6.60;90.10;;;;;;4972421;28;20035;-83
2020/12/25 11:23:50;;;;;;;7.68;2.92;;;6.60;89.40;;;;;;4975147;28;20042;-84
2020/12/25 11:26:24;;;;;;;5.28;2.30;;;6.50;89.30;;;;;;4975350;28;20046;-84
2020/12/25 11:28:53;;;;;;;7.43;2.70;;;6.60;89.90;;;;;;4976379;28;20018;-84
2020/12/25 11:31:19;;;;;;;6.32;2.75;;;6.60;89.40;;;;;;4973973;28;20479;-84
2020/12/25 11:33:49;;;;;;;6.60;3.00;;;6.50;88.90;;;;;;4977727;28;20047;-84
2020/12/25 11:36:19;;;;;;;6.40;2.60;;;6.50;89.10;;;;;;4993265;28;20054;-84
2020/12/25 11:38:45;;;;;;;7.05;2.60;;;6.50;90.00;;;;;;4991341;28;20113;-84
2020/12/25 11:41:13;;;;;;;5.90;2.63;;;6.60;89.70;;;;;;4978448;28;20031;-84
2020/12/25 11:43:39;;;;;;;7.13;3.05;;;6.60;89.50;;;;;;4974898;28;20030;-84
2020/12/25 11:46:05;;;;;;;14.70;8.02;;;6.50;89.10;;;;;;4974673;28;20015;-84
2020/12/25 11:48:31;;;;;;;15.02;6.10;;;6.60;89.20;;;;;;4977135;28;20046;-84
2020/12/25 11:50:57;;;;;;;17.17;8.45;;;6.40;88.90;;;;;;4992540;28;20073;-84
2020/12/25 11:53:24;;;;;;;11.02;4.72;;;6.40;89.00;;;;;;4974540;28;20475;-84
2020/12/25 11:55:50;;;;;;;32.38;15.15;;;6.40;88.90;;;;;;4995422;28;20027;-84
2020/12/25 11:58:16;;;;;;;9.15;3.45;;;6.30;88.80;;;;;;4974499;28;20039;-84
2020/12/25 12:00:42;;;;;;;6.72;2.65;;;6.30;88.60;;;;;;4994325;28;20383;-83
2020/12/25 12:03:09;;;;;;;6.40;3.17;;;6.10;88.00;;;;;;4974452;28;20356;-84
2020/12/25 12:05:34;;;;;;;9.20;3.67;;;5.90;87.70;;;;;;4975882;28;20034;-84
2020/12/25 12:08:00;;;;;;;9.35;2.67;;;5.80;88.00;;;;;;4992486;28;20133;-84
2020/12/25 12:10:26;;;;;;;6.72;2.92;;;5.70;88.70;;;;;;4974444;28;20471;-84
2020/12/25 12:12:51;;;;;;;7.22;2.65;;;5.70;89.30;;;;;;4974534;28;20495;-84
2020/12/25 12:15:17;;;;;;;5.72;2.38;;;5.70;89.30;;;;;;4974377;28;20097;-84
2020/12/25 12:17:43;;;;;;;6.95;2.83;;;5.70;88.60;;;;;;4994676;28;20023;-84
2020/12/25 12:20:08;;;;;;;6.05;2.85;;;5.60;88.90;;;;;;4974224;28;20033;-84
2020/12/25 12:22:34;;;;;;;17.30;8.55;;;5.60;88.70;;;;;;4989681;28;20081;-84
2020/12/25 12:25:06;;;;;;;8.90;3.53;;;5.60;89.30;;;;;;4992467;28;20367;-84
2020/12/25 12:27:32;;;;;;;7.53;3.35;;;5.60;89.30;;;;;;4974120;28;20022;-84
2020/12/25 12:29:58;;;;;;;6.72;3.20;;;5.60;89.10;;;;;;4991285;28;20023;-84
2020/12/25 12:32:23;;;;;;;6.63;2.47;;;5.70;89.80;;;;;;4978544;28;20041;-84
2020/12/25 12:34:49;;;;;;;6.80;3.00;;;5.70;89.30;;;;;;4973874;28;20038;-84
2020/12/25 12:37:15;;;;;;;8.13;3.20;;;5.70;89.50;;;;;;4974020;28;20035;-84
2020/12/25 12:39:40;;;;;;;7.15;3.03;;;5.70;89.50;;;;;;4993066;28;20061;-83
2020/12/25 12:42:06;;;;;;;7.53;3.20;;;5.80;89.80;;;;;;4995641;28;20038;-84
2020/12/25 12:44:32;;;;;;;6.47;2.53;;;5.90;89.50;;;;;;4992245;28;21808;-84
2020/12/25 12:46:57;;;;;;;39.63;19.60;;;5.90;89.20;;;;;;4975798;28;20061;-84
2020/12/25 12:49:23;;;;;;;8.45;3.55;;;5.90;89.10;;;;;;4975607;28;20018;-84
2020/12/25 12:51:48;;;;;;;9.35;3.28;;;5.80;88.50;;;;;;4976870;28;20027;-84
2020/12/25 12:54:14;;;;;;;7.70;2.83;;;5.60;88.10;;;;;;5001150;28;20069;-84